Time;durP1;ratioP1;P1;durP2;ratioP2;P2;SDS_P1;SDS_P2;PMS_P1;PMS_P2;Temp;Humidity;BMP_temperature;BMP_pressure;BME280_temperature;BME280_humidity;BME280_pressure;Samples;Min_cycle;Max_cycle;Signal;HPM_P1;HPM_P2
2022/05/31 00:02:00;;;;;;;3.47;3.20;;;;;;;;;;5072819;28;20220;-58
2022/05/31 00:04:28;;;;;;;2.70;2.38;;;;;;;;;;5072626;28;20291;-58
2022/05/31 00:06:55;;;;;;;3.97;2.70;;;;;;;;;;5072431;28;20581;-58
2022/05/31 00:09:22;;;;;;;2.45;2.25;;;;;;;;;;5072989;28;20235;-58
2022/05/31 00:11:50;;;;;;;3.55;2.20;;;;;;;;;;5073096;28;20238;-59
2022/05/31 00:14:18;;;;;;;2.92;2.72;;;;;;;;;;5072883;28;20699;-58
2022/05/31 00:16:47;;;;;;;5.10;2.53;;;;;;;;;;5073028;28;20211;-58
2022/05/31 00:19:17;;;;;;;6.72;2.63;;;;;;;;;;5072470;28;20238;-59
2022/05/31 00:21:45;;;;;;;3.35;2.75;;;;;;;;;;5072876;28;20225;-58
2022/05/31 00:24:14;;;;;;;3.90;2.90;;;;;;;;;;5072664;28;20547;-58
2022/05/31 00:26:41;;;;;;;3.42;2.60;;;;;;;;;;5076621;28;20674;-59
2022/05/31 00:29:09;;;;;;;3.38;2.92;;;;;;;;;;5076354;28;20242;-58
2022/05/31 00:31:37;;;;;;;3.53;2.58;;;;;;;;;;5076401;28;20194;-58
2022/05/31 00:34:04;;;;;;;2.47;2.28;;;;;;;;;;5076730;28;20613;-58
2022/05/31 00:36:33;;;;;;;3.15;2.60;;;;;;;;;;5076712;28;20203;-58
2022/05/31 00:39:01;;;;;;;4.25;2.55;;;;;;;;;;5076539;28;20234;-58
2022/05/31 00:41:28;;;;;;;4.90;2.65;;;;;;;;;;5076733;28;20207;-59
2022/05/31 00:43:59;;;;;;;4.95;3.67;;;;;;;;;;5076093;28;20251;-58
2022/05/31 00:46:28;;;;;;;4.53;2.97;;;;;;;;;;5076116;28;20722;-58
2022/05/31 00:48:57;;;;;;;6.05;3.05;;;;;;;;;;5075836;28;20231;-59
2022/05/31 00:51:26;;;;;;;2.80;2.60;;;;;;;;;;5076475;28;20215;-58
2022/05/31 00:53:55;;;;;;;5.00;4.18;;;;;;;;;;5075772;28;20665;-58
2022/05/31 00:56:24;;;;;;;5.55;2.78;;;;;;;;;;5076353;28;20204;-58
2022/05/31 00:58:54;;;;;;;5.15;2.90;;;;;;;;;;5075826;28;20225;-58
2022/05/31 01:01:21;;;;;;;4.28;2.90;;;;;;;;;;5075682;28;20241;-58
2022/05/31 01:03:49;;;;;;;3.28;2.53;;;;;;;;;;5076128;28;20213;-58
2022/05/31 01:06:16;;;;;;;4.47;3.05;;;;;;;;;;5076144;28;20213;-58
2022/05/31 01:08:45;;;;;;;3.65;3.00;;;;;;;;;;5075871;28;20219;-58
2022/05/31 01:11:15;;;;;;;5.00;3.10;;;;;;;;;;5075730;28;20211;-58
2022/05/31 01:13:43;;;;;;;4.45;2.65;;;;;;;;;;5076097;28;20199;-58
2022/05/31 01:16:13;;;;;;;3.97;3.22;;;;;;;;;;5075701;28;20225;-58
2022/05/31 01:18:40;;;;;;;2.92;2.63;;;;;;;;;;5075178;28;20239;-58
2022/05/31 01:21:09;;;;;;;3.05;2.75;;;;;;;;;;5075577;28;20210;-58
2022/05/31 01:23:41;;;;;;;3.95;3.30;;;;;;;;;;5075782;28;20207;-58
2022/05/31 01:26:12;;;;;;;4.95;3.30;;;;;;;;;;5075294;28;20180;-59
2022/05/31 01:28:45;;;;;;;4.72;3.63;;;;;;;;;;5075562;28;20236;-58
2022/05/31 01:31:15;;;;;;;4.47;3.05;;;;;;;;;;5075311;28;20195;-58
2022/05/31 01:33:44;;;;;;;3.78;3.10;;;;;;;;;;5075119;28;20698;-58
2022/05/31 01:36:15;;;;;;;5.45;3.15;;;;;;;;;;5074418;28;20699;-58
2022/05/31 01:38:44;;;;;;;4.10;2.85;;;;;;;;;;5075286;28;20224;-58
2022/05/31 01:41:19;;;;;;;4.20;3.80;;;;;;;;;;5074973;28;20671;-58
2022/05/31 01:43:47;;;;;;;3.35;3.05;;;;;;;;;;5075103;28;20188;-58
2022/05/31 01:46:16;;;;;;;3.90;3.55;;;;;;;;;;5075241;28;20203;-59
2022/05/31 01:48:44;;;;;;;5.15;2.95;;;;;;;;;;5075319;28;20224;-59
2022/05/31 01:51:14;;;;;;;6.30;2.67;;;;;;;;;;5074949;28;20200;-59
2022/05/31 01:53:42;;;;;;;5.10;3.30;;;;;;;;;;5075335;28;20208;-59
2022/05/31 01:56:10;;;;;;;4.43;2.58;;;;;;;;;;5075381;28;20318;-59
2022/05/31 01:58:39;;;;;;;11.35;3.20;;;;;;;;;;5074983;28;20226;-59
2022/05/31 02:01:07;;;;;;;3.85;3.10;;;;;;;;;;5074730;28;20203;-59
2022/05/31 02:03:35;;;;;;;4.30;3.22;;;;;;;;;;5074993;28;20203;-59
2022/05/31 02:06:02;;;;;;;4.68;2.60;;;;;;;;;;5074883;28;20198;-59
2022/05/31 02:08:31;;;;;;;3.33;3.03;;;;;;;;;;5074464;28;20217;-59
2022/05/31 02:10:59;;;;;;;5.05;2.97;;;;;;;;;;5074554;28;20199;-59
2022/05/31 02:13:26;;;;;;;4.05;2.58;;;;;;;;;;5074791;28;20204;-58
2022/05/31 02:15:55;;;;;;;4.30;2.65;;;;;;;;;;5074790;28;20221;-58
2022/05/31 02:19:15;;;;;;;7.68;3.25;;;;;;;;;;5074445;28;20650;-58
2022/05/31 02:21:10;;;;;;;7.13;3.03;;;16.40;45.40;;;;;;5074125;28;20362;-58
2022/05/31 02:23:39;;;;;;;9.98;3.53;;;7.20;99.90;;;;;;5074310;28;20212;-59
2022/05/31 02:26:06;;;;;;;4.07;2.90;;;7.10;99.90;;;;;;5074584;28;20203;-59
2022/05/31 02:28:33;;;;;;;3.60;3.28;;;7.00;99.90;;;;;;5074592;28;20227;-59
2022/05/31 02:31:00;;;;;;;4.80;2.70;;;7.00;99.90;;;;;;5074260;28;20203;-59
2022/05/31 02:33:27;;;;;;;4.20;3.10;;;7.00;99.90;;;;;;5074604;28;20214;-59
2022/05/31 02:35:54;;;;;;;3.05;2.80;;;7.00;99.90;;;;;;5074107;28;20224;-59
2022/05/31 02:38:21;;;;;;;4.07;3.10;;;7.00;99.90;;;;;;5074627;28;20237;-59
2022/05/31 02:40:50;;;;;;;5.47;3.00;;;6.90;99.90;;;;;;5074613;28;20600;-58
2022/05/31 02:43:17;;;;;;;6.07;2.78;;;6.90;99.90;;;;;;5074240;28;20203;-59
2022/05/31 02:45:44;;;;;;;4.95;3.60;;;6.90;99.90;;;;;;5073842;28;20204;-59
2022/05/31 02:48:11;;;;;;;4.13;2.83;;;6.90;99.90;;;;;;5073314;28;20230;-59
2022/05/31 02:50:40;;;;;;;4.28;3.60;;;6.90;99.90;;;;;;5073872;28;20206;-59
2022/05/31 02:53:07;;;;;;;3.85;3.38;;;7.00;99.90;;;;;;5073696;28;20246;-59
2022/05/31 02:55:34;;;;;;;4.82;3.10;;;7.00;99.90;;;;;;5073995;28;20227;-58
2022/05/31 02:58:03;;;;;;;3.67;3.15;;;7.00;99.90;;;;;;5073893;28;20236;-59
2022/05/31 03:00:30;;;;;;;5.45;3.53;;;7.00;99.90;;;;;;5073509;28;20705;-59
2022/05/31 03:02:57;;;;;;;4.22;3.05;;;7.00;99.90;;;;;;5073589;28;20217;-59
2022/05/31 03:05:24;;;;;;;6.35;3.53;;;7.00;99.90;;;;;;5073585;28;20688;-59
2022/05/31 03:07:51;;;;;;;6.32;3.90;;;7.00;99.90;;;;;;5073633;28;20219;-59
2022/05/31 03:10:19;;;;;;;6.60;3.65;;;7.00;99.90;;;;;;5073629;28;20257;-59
2022/05/31 03:12:47;;;;;;;4.72;3.45;;;7.00;99.90;;;;;;5073539;28;20202;-58
2022/05/31 03:15:19;;;;;;;8.30;3.35;;;7.00;99.90;;;;;;5073893;28;20242;-59
2022/05/31 03:17:50;;;;;;;3.38;3.08;;;7.00;99.90;;;;;;5073585;28;20736;-58
2022/05/31 03:20:21;;;;;;;4.97;3.30;;;7.10;99.90;;;;;;5073584;28;20187;-59
2022/05/31 03:22:52;;;;;;;4.32;3.35;;;7.10;99.90;;;;;;5073342;28;20633;-59
2022/05/31 03:25:23;;;;;;;7.95;3.55;;;7.10;99.90;;;;;;5073534;28;20285;-59
2022/05/31 03:27:52;;;;;;;4.28;3.40;;;7.10;99.90;;;;;;5073026;28;20729;-59
2022/05/31 03:30:21;;;;;;;4.97;3.20;;;7.10;99.90;;;;;;5073375;28;20627;-60
2022/05/31 03:32:49;;;;;;;5.53;2.97;;;7.20;99.90;;;;;;5073322;28;20200;-59
2022/05/31 03:35:16;;;;;;;5.20;3.35;;;7.20;99.90;;;;;;5073062;28;20724;-58
2022/05/31 03:37:43;;;;;;;3.85;3.15;;;7.20;99.90;;;;;;5073268;28;20224;-59
2022/05/31 03:40:55;;;;;;;4.68;3.22;;;7.30;99.90;;;;;;5073042;28;20682;-59
2022/05/31 03:43:01;;;;;;;4.70;3.17;;;7.30;99.90;;;;;;5072998;28;20212;-59
2022/05/31 03:45:34;;;;;;;3.40;3.10;;;7.40;99.90;;;;;;5072990;28;20238;-59
2022/05/31 03:48:01;;;;;;;4.40;3.50;;;7.50;99.90;;;;;;5073275;28;20230;-58
2022/05/31 03:50:28;;;;;;;13.73;4.70;;;7.50;99.90;;;;;;5073362;28;20212;-59
2022/05/31 03:52:56;;;;;;;4.28;3.15;;;7.60;99.90;;;;;;5073189;28;20752;-59
2022/05/31 03:55:23;;;;;;;5.13;3.95;;;7.60;99.90;;;;;;5072664;28;20749;-59
2022/05/31 03:57:52;;;;;;;5.78;3.20;;;7.90;99.90;;;;;;5073134;28;20225;-57
2022/05/31 04:00:20;;;;;;;5.78;3.47;;;8.30;99.90;;;;;;5072459;28;20202;-58
2022/05/31 04:02:48;;;;;;;3.30;2.60;;;8.90;99.90;;;;;;5073399;28;20203;-59
2022/05/31 04:05:15;;;;;;;3.40;3.05;;;9.30;99.90;;;;;;5074879;28;20202;-59
2022/05/31 04:09:49;;;;;;;3.90;2.53;;;9.70;99.90;;;;;;5090610;27;20544;-58
2022/05/31 04:12:16;;;;;;;5.70;2.40;;;10.00;99.90;;;;;;5090559;28;20197;-58
2022/05/31 04:14:43;;;;;;;4.67;2.60;;;10.40;99.90;;;;;;5111212;28;20453;-57
2022/05/31 04:17:10;;;;;;;3.53;2.57;;;10.70;99.90;;;;;;5108193;28;20480;-58
2022/05/31 04:19:37;;;;;;;3.93;2.40;;;10.70;99.90;;;;;;5071781;28;20943;-58
2022/05/31 04:22:04;;;;;;;4.37;3.20;;;10.70;99.90;;;;;;5069667;28;20448;-58
2022/05/31 04:24:31;;;;;;;4.37;3.00;;;10.70;99.90;;;;;;5074575;28;20479;-58
2022/05/31 04:27:00;;;;;;;4.70;3.07;;;10.80;99.90;;;;;;5050700;28;20809;-58
2022/05/31 04:29:27;;;;;;;2.83;2.43;;;11.00;99.90;;;;;;5059396;28;20483;-58
2022/05/31 04:31:54;;;;;;;5.43;2.97;;;11.40;99.90;;;;;;5091180;28;20449;-58
2022/05/31 04:34:21;;;;;;;5.23;2.80;;;11.90;99.90;;;;;;5090818;28;20450;-58
2022/05/31 04:36:48;;;;;;;2.63;2.40;;;12.40;99.90;;;;;;5090237;28;20931;-58
2022/05/31 04:39:15;;;;;;;2.50;2.20;;;12.80;99.00;;;;;;5090688;28;20468;-58
2022/05/31 04:41:43;;;;;;;5.33;3.00;;;13.20;97.30;;;;;;5083639;28;20453;-57
2022/05/31 04:44:12;;;;;;;2.70;2.07;;;13.60;96.10;;;;;;5069928;28;20466;-58
2022/05/31 04:46:39;;;;;;;3.73;2.37;;;14.00;94.50;;;;;;5070743;28;20546;-57
2022/05/31 04:49:06;;;;;;;4.70;2.60;;;14.30;93.00;;;;;;5069234;28;20481;-58
2022/05/31 04:51:34;;;;;;;2.60;1.80;;;14.50;91.70;;;;;;5069184;28;20954;-58
2022/05/31 04:54:01;;;;;;;3.10;2.10;;;14.80;90.30;;;;;;5068261;28;20447;-59
2022/05/31 04:56:29;;;;;;;4.40;2.37;;;15.00;87.50;;;;;;5055404;28;20456;-58
2022/05/31 04:58:56;;;;;;;5.70;2.10;;;15.10;84.50;;;;;;5067686;28;20483;-59
2022/05/31 05:01:25;;;;;;;4.80;2.40;;;15.00;82.90;;;;;;5071403;28;20463;-58
2022/05/31 05:03:52;;;;;;;2.63;1.80;;;15.00;81.60;;;;;;5063852;28;20449;-57
2022/05/31 05:06:20;;;;;;;3.47;2.10;;;15.10;79.80;;;;;;5085837;28;20807;-58
2022/05/31 05:08:48;;;;;;;3.63;2.00;;;15.30;78.10;;;;;;5053996;28;20490;-59
2022/05/31 05:11:17;;;;;;;3.83;2.23;;;15.60;75.70;;;;;;5074929;28;20461;-58
2022/05/31 05:13:45;;;;;;;2.37;1.83;;;16.00;73.20;;;;;;5070470;28;20466;-57
2022/05/31 05:16:14;;;;;;;4.30;1.60;;;16.20;70.10;;;;;;5068875;28;20448;-57
2022/05/31 05:18:43;;;;;;;3.97;2.97;;;16.40;67.70;;;;;;5059127;28;20477;-57
2022/05/31 05:21:13;;;;;;;3.53;2.00;;;16.40;65.70;;;;;;5035400;28;20537;-57
2022/05/31 05:23:40;;;;;;;3.07;1.90;;;16.20;64.60;;;;;;5035281;28;20441;-57
2022/05/31 05:26:08;;;;;;;1.87;1.70;;;16.10;64.40;;;;;;5035475;28;20450;-57
2022/05/31 05:31:24;;;;;;;6.20;2.37;;;15.30;64.30;;;;;;5048647;28;20590;-57
2022/05/31 05:33:53;;;;;;;6.50;2.10;;;14.70;65.60;;;;;;5056911;28;20956;-57
2022/05/31 05:36:21;;;;;;;4.90;2.70;;;14.30;67.00;;;;;;5054912;28;20451;-57
2022/05/31 05:38:48;;;;;;;5.03;2.67;;;14.10;67.70;;;;;;5056565;28;20483;-58
2022/05/31 05:41:16;;;;;;;6.50;2.40;;;13.80;68.60;;;;;;5058509;28;20467;-58
2022/05/31 05:43:44;;;;;;;3.27;2.50;;;13.80;70.40;;;;;;5059631;28;20463;-59
2022/05/31 05:46:15;;;;;;;4.13;2.33;;;14.10;70.70;;;;;;5054556;28;20479;-58
2022/05/31 05:48:43;;;;;;;2.90;2.13;;;14.60;69.30;;;;;;5054110;28;20479;-57
2022/05/31 05:51:20;;;;;;;3.13;1.90;;;15.10;67.20;;;;;;5048803;28;20492;-58
2022/05/31 05:53:48;;;;;;;3.10;1.83;;;15.30;65.10;;;;;;5053494;28;20453;-58
2022/05/31 05:56:15;;;;;;;4.33;2.77;;;15.40;64.00;;;;;;5046980;28;20992;-57
2022/05/31 05:58:43;;;;;;;2.80;2.20;;;15.20;62.90;;;;;;5074974;28;20793;-57
2022/05/31 06:01:15;;;;;;;4.40;2.57;;;14.90;63.20;;;;;;5060431;28;20511;-56
2022/05/31 06:03:50;;;;;;;4.60;2.23;;;14.70;64.20;;;;;;5038851;28;20611;-56
2022/05/31 06:06:19;;;;;;;6.67;2.23;;;14.60;64.90;;;;;;5059630;28;20440;-56
2022/05/31 06:08:51;;;;;;;5.20;2.00;;;14.60;65.20;;;;;;5074192;28;21066;-57
2022/05/31 06:11:22;;;;;;;3.47;2.17;;;14.80;65.20;;;;;;5036549;28;20821;-58
2022/05/31 06:13:55;;;;;;;6.00;2.43;;;14.90;65.10;;;;;;5054181;28;20432;-57
2022/05/31 06:16:27;;;;;;;4.07;1.90;;;15.10;64.60;;;;;;5054225;28;20812;-57
2022/05/31 06:18:59;;;;;;;3.87;2.30;;;15.10;63.90;;;;;;5054090;28;20487;-57
2022/05/31 06:21:28;;;;;;;3.30;1.87;;;15.00;63.80;;;;;;5054060;28;20909;-56
2022/05/31 06:23:56;;;;;;;4.60;1.80;;;15.00;63.90;;;;;;5054120;28;20453;-57
2022/05/31 06:26:23;;;;;;;2.90;2.00;;;15.20;63.10;;;;;;5053809;28;20452;-57
2022/05/31 06:28:50;;;;;;;5.43;2.27;;;15.30;62.30;;;;;;5052880;28;20872;-57
2022/05/31 06:31:17;;;;;;;3.50;1.80;;;15.50;61.20;;;;;;5052642;28;20928;-57
2022/05/31 06:33:44;;;;;;;5.07;2.37;;;15.60;60.10;;;;;;5053641;28;20444;-57
2022/05/31 06:36:13;;;;;;;3.67;2.10;;;15.50;60.00;;;;;;5052766;28;20557;-58
2022/05/31 06:38:42;;;;;;;4.50;2.40;;;15.30;59.40;;;;;;5053476;28;20546;-58
2022/05/31 06:41:09;;;;;;;5.30;2.10;;;15.10;59.90;;;;;;5052764;28;20838;-58
2022/05/31 06:43:36;;;;;;;1.90;1.70;;;15.20;60.00;;;;;;5035762;28;20484;-57
2022/05/31 06:46:08;;;;;;;3.70;2.03;;;15.40;59.50;;;;;;5034574;28;20455;-57
2022/05/31 06:48:35;;;;;;;6.90;2.53;;;15.60;58.70;;;;;;5034033;28;20486;-57
2022/05/31 06:51:05;;;;;;;5.37;2.20;;;15.80;57.80;;;;;;5034906;28;20864;-57
2022/05/31 06:59:03;;;;;;;3.47;2.30;;;16.20;56.10;;;;;;5053069;28;20562;-57
2022/05/31 07:01:32;;;;;;;3.20;2.63;;;16.10;55.70;;;;;;5052554;28;20931;-59
2022/05/31 07:04:00;;;;;;;4.03;2.80;;;16.00;55.80;;;;;;5053243;28;20455;-59
2022/05/31 07:06:27;;;;;;;2.57;1.63;;;16.00;56.10;;;;;;5053786;28;20444;-58
2022/05/31 07:08:54;;;;;;;2.30;1.60;;;16.20;55.60;;;;;;5053053;28;20498;-60
2022/05/31 07:11:23;;;;;;;4.00;1.60;;;16.40;55.00;;;;;;5048290;28;20460;-59
2022/05/31 07:13:50;;;;;;;3.73;1.63;;;16.60;54.30;;;;;;5053759;28;20443;-61
2022/05/31 07:16:17;;;;;;;2.33;1.50;;;16.60;53.50;;;;;;5052778;28;20453;-59
2022/05/31 07:18:45;;;;;;;2.67;1.83;;;16.60;53.30;;;;;;5052720;28;20460;-59
2022/05/31 07:21:12;;;;;;;2.40;2.00;;;16.60;52.80;;;;;;5052748;28;20449;-58
2022/05/31 07:23:40;;;;;;;2.80;2.13;;;16.70;52.60;;;;;;5051846;28;20459;-59
2022/05/31 07:26:08;;;;;;;2.33;1.40;;;16.70;52.10;;;;;;5053197;28;20534;-61
2022/05/31 07:28:36;;;;;;;3.47;1.60;;;16.90;51.50;;;;;;5053147;28;20461;-59
2022/05/31 07:31:03;;;;;;;1.70;1.50;;;16.90;51.00;;;;;;5051673;28;20467;-59
2022/05/31 07:33:30;;;;;;;4.10;1.47;;;17.00;51.00;;;;;;5052613;28;20539;-59
2022/05/31 07:35:59;;;;;;;4.00;1.50;;;17.10;50.90;;;;;;5051548;28;20452;-59
2022/05/31 07:38:27;;;;;;;3.03;1.83;;;17.10;50.60;;;;;;5060074;28;20478;-59
2022/05/31 07:40:54;;;;;;;3.93;1.10;;;17.30;50.70;;;;;;5072972;28;20479;-58
2022/05/31 07:43:21;;;;;;;1.47;0.93;;;17.40;49.30;;;;;;5061486;28;20940;-59
2022/05/31 07:45:50;;;;;;;2.20;1.67;;;17.40;48.50;;;;;;5051316;28;21028;-57
2022/05/31 07:48:17;;;;;;;1.67;1.07;;;17.40;47.80;;;;;;5052009;28;20464;-57
2022/05/31 07:50:44;;;;;;;3.23;1.37;;;17.40;47.50;;;;;;5051758;28;20514;-58
2022/05/31 07:53:11;;;;;;;2.57;1.03;;;17.40;46.80;;;;;;5052322;28;20452;-59
2022/05/31 07:55:38;;;;;;;3.50;1.70;;;17.30;46.50;;;;;;5051170;28;20813;-59
2022/05/31 08:00:51;;;;;;;2.43;1.47;;;17.40;46.70;;;;;;5051954;28;20396;-58
2022/05/31 08:03:18;;;;;;;2.10;1.40;;;17.50;46.40;;;;;;5050957;28;20444;-59
2022/05/31 08:05:45;;;;;;;1.70;0.80;;;17.30;46.30;;;;;;5052029;28;20459;-60
2022/05/31 08:08:12;;;;;;;2.13;1.10;;;17.40;46.70;;;;;;5050415;28;20484;-59
2022/05/31 08:10:40;;;;;;;8.03;1.00;;;17.40;46.70;;;;;;5051901;28;20509;-60
2022/05/31 08:13:07;;;;;;;1.80;1.17;;;17.50;46.50;;;;;;5051937;28;20818;-60
2022/05/31 08:15:34;;;;;;;2.50;1.90;;;17.60;46.20;;;;;;5050900;28;20921;-58
2022/05/31 08:18:03;;;;;;;2.00;1.40;;;17.80;45.90;;;;;;5051754;28;20469;-59
2022/05/31 08:20:30;;;;;;;3.00;1.03;;;17.90;45.80;;;;;;5052259;28;20451;-60
2022/05/31 08:22:57;;;;;;;3.23;1.30;;;17.90;45.30;;;;;;5052259;28;20456;-61
2022/05/31 08:25:24;;;;;;;3.00;1.30;;;17.90;44.90;;;;;;5050026;28;20924;-59
2022/05/31 08:27:51;;;;;;;3.53;1.40;;;17.70;45.10;;;;;;5051717;28;20975;-60
2022/05/31 08:30:18;;;;;;;3.00;1.23;;;17.80;45.40;;;;;;5051583;28;20552;-59
2022/05/31 08:32:45;;;;;;;2.20;1.40;;;17.90;45.30;;;;;;5051571;28;20439;-60
2022/05/31 08:35:14;;;;;;;3.43;1.30;;;18.00;45.30;;;;;;5051228;28;20451;-59
2022/05/31 08:37:41;;;;;;;1.60;1.20;;;18.10;45.40;;;;;;5051599;28;20984;-59
2022/05/31 08:40:09;;;;;;;1.90;1.33;;;18.20;45.30;;;;;;5052308;28;20535;-59
2022/05/31 08:42:50;;;;;;;2.30;1.40;;;18.30;45.10;;;;;;5051436;28;20459;-59
2022/05/31 08:45:30;;;;;;;2.00;1.00;;;18.40;44.40;;;;;;5050984;28;20535;-60
2022/05/31 08:48:09;;;;;;;1.57;0.97;;;18.40;43.70;;;;;;5052141;28;20467;-59
2022/05/31 08:53:38;;;;;;;2.07;1.37;;;18.40;42.90;;;;;;5051013;28;20909;-58
2022/05/31 08:59:01;;;;;;;1.30;1.10;;;18.50;42.30;;;;;;5054155;28;20518;-61
2022/05/31 09:01:33;;;;;;;1.70;1.20;;;18.60;42.10;;;;;;5055188;28;20428;-61
2022/05/31 09:04:14;;;;;;;3.33;1.43;;;18.70;42.20;;;;;;5054878;28;20804;-60
2022/05/31 09:06:48;;;;;;;1.73;1.60;;;18.90;42.00;;;;;;5054064;28;20444;-60
2022/05/31 09:09:19;;;;;;;5.40;2.60;;;19.00;41.10;;;;;;5054487;28;20520;-59
2022/05/31 09:11:58;;;;;;;2.10;1.40;;;19.10;40.80;;;;;;5054942;28;20437;-59
2022/05/31 09:14:40;;;;;;;2.43;1.30;;;19.50;40.90;;;;;;5054627;28;20435;-59
2022/05/31 09:17:14;;;;;;;2.90;1.40;;;19.70;40.50;;;;;;5035218;28;20799;-59
2022/05/31 09:19:45;;;;;;;2.47;1.87;;;19.80;40.30;;;;;;5049541;28;20451;-59
2022/05/31 09:22:17;;;;;;;4.73;2.10;;;19.90;40.10;;;;;;5054768;28;21039;-58
2022/05/31 09:24:45;;;;;;;1.90;1.30;;;19.90;39.70;;;;;;5055074;28;20437;-61
2022/05/31 09:27:14;;;;;;;2.63;1.77;;;20.10;39.40;;;;;;5054805;28;20444;-59
2022/05/31 09:29:57;;;;;;;2.23;1.80;;;20.20;38.60;;;;;;5053189;28;20847;-59
2022/05/31 09:32:39;;;;;;;2.17;2.00;;;20.30;38.00;;;;;;5054994;28;20448;-60
2022/05/31 09:35:17;;;;;;;2.93;2.00;;;20.50;37.50;;;;;;5054720;28;20424;-59
2022/05/31 09:37:57;;;;;;;2.13;1.60;;;20.60;36.50;;;;;;5053968;28;20476;-60
2022/05/31 09:40:43;;;;;;;2.40;2.10;;;20.50;36.00;;;;;;5054240;28;20429;-59
2022/05/31 09:43:22;;;;;;;3.53;1.63;;;20.40;35.70;;;;;;5054187;28;20436;-60
2022/05/31 09:46:01;;;;;;;3.20;2.10;;;20.30;35.10;;;;;;5053260;28;20436;-59
2022/05/31 09:48:28;;;;;;;2.70;2.20;;;20.30;35.20;;;;;;5054253;28;20461;-59
2022/05/31 09:51:01;;;;;;;2.50;2.30;;;20.30;35.10;;;;;;5054007;28;20476;-59
2022/05/31 09:59:09;;;;;;;2.43;1.40;;;20.80;34.40;;;;;;5054112;28;20493;-61
2022/05/31 10:01:43;;;;;;;1.97;1.70;;;20.90;34.00;;;;;;5053695;28;20746;-58
2022/05/31 10:04:13;;;;;;;2.23;1.83;;;21.00;34.30;;;;;;5053404;28;20431;-58
2022/05/31 10:06:56;;;;;;;3.00;2.10;;;20.90;34.50;;;;;;5053180;28;20448;-59
2022/05/31 10:09:31;;;;;;;2.40;1.63;;;20.60;34.60;;;;;;5053132;28;20480;-60
2022/05/31 10:12:17;;;;;;;4.27;1.70;;;20.40;34.50;;;;;;5053845;28;20444;-60
2022/05/31 10:14:47;;;;;;;2.77;2.23;;;20.30;34.00;;;;;;5052693;28;20491;-59
2022/05/31 10:17:32;;;;;;;2.40;1.83;;;20.10;34.20;;;;;;5053627;28;20464;-59
2022/05/31 10:20:18;;;;;;;3.83;2.40;;;20.00;34.70;;;;;;5051391;28;20499;-59
2022/05/31 10:23:00;;;;;;;3.13;2.27;;;19.90;34.80;;;;;;5052490;28;20939;-60
2022/05/31 10:25:35;;;;;;;3.57;1.93;;;19.80;34.70;;;;;;5053659;28;20456;-59
2022/05/31 10:28:04;;;;;;;3.00;1.70;;;19.70;34.80;;;;;;5053368;28;20460;-61
2022/05/31 10:30:33;;;;;;;2.40;1.80;;;19.80;35.00;;;;;;5052472;28;20491;-60
2022/05/31 10:33:07;;;;;;;2.17;1.73;;;20.00;35.10;;;;;;5053716;28;20452;-60
2022/05/31 10:35:37;;;;;;;2.90;1.70;;;20.20;35.10;;;;;;5079390;22;20503;-63
2022/05/31 10:38:10;;;;;;;2.57;2.00;;;20.30;35.00;;;;;;5034589;28;20446;-65
2022/05/31 10:40:53;;;;;;;3.30;1.77;;;20.40;34.70;;;;;;5034471;28;20426;-66
2022/05/31 10:43:35;;;;;;;2.20;1.70;;;20.40;34.60;;;;;;5033322;28;20469;-63
2022/05/31 10:46:10;;;;;;;1.80;1.70;;;20.20;34.20;;;;;;5034112;28;20567;-64
2022/05/31 10:48:46;;;;;;;3.77;2.40;;;20.10;35.00;;;;;;5034239;28;20433;-66
2022/05/31 10:51:22;;;;;;;2.73;1.97;;;20.20;34.60;;;;;;5032553;28;20469;-62
2022/05/31 10:54:01;;;;;;;8.07;1.80;;;20.40;34.50;;;;;;5034183;28;20472;-63
2022/05/31 10:56:37;;;;;;;4.10;1.90;;;20.70;34.70;;;;;;5034228;28;20480;-63
2022/05/31 10:59:07;;;;;;;3.00;2.10;;;20.80;34.40;;;;;;5033515;28;20442;-63
2022/05/31 11:01:53;;;;;;;4.23;2.10;;;20.70;33.70;;;;;;5033502;28;20433;-64
2022/05/31 11:04:38;;;;;;;3.73;2.23;;;20.30;33.20;;;;;;5033635;28;20516;-65
2022/05/31 11:07:13;;;;;;;2.60;1.80;;;20.00;33.20;;;;;;5033079;28;20465;-65
2022/05/31 11:13:01;;;;;;;3.10;1.80;;;19.60;33.90;;;;;;5033434;28;20422;-63
2022/05/31 11:15:41;;;;;;;10.60;2.07;;;19.50;34.30;;;;;;5032191;28;20924;-63
2022/05/31 11:18:27;;;;;;;2.80;1.93;;;19.60;34.50;;;;;;5033146;28;20434;-65
2022/05/31 11:21:01;;;;;;;6.77;4.60;;;19.90;34.70;;;;;;5033084;28;20430;-65
2022/05/31 11:23:44;;;;;;;9.30;7.90;;;20.30;34.40;;;;;;5032426;28;20441;-64
2022/05/31 11:26:24;;;;;;;42.33;34.70;;;20.60;33.90;;;;;;5033752;28;20504;-67
2022/05/31 11:29:17;;;;;;;11.17;9.13;;;20.80;33.40;;;;;;5033185;28;20449;-65
2022/05/31 11:31:55;;;;;;;5.40;3.17;;;20.90;33.60;;;;;;5033041;28;20489;-66
2022/05/31 11:34:55;;;;;;;5.40;2.40;;;21.10;33.70;;;;;;5033029;28;20491;-66
2022/05/31 11:37:40;;;;;;;2.50;2.03;;;21.20;33.40;;;;;;5033376;28;20422;-67
2022/05/31 11:40:19;;;;;;;4.03;1.73;;;21.30;33.20;;;;;;5032729;28;20442;-67
2022/05/31 11:43:14;;;;;;;1.80;1.60;;;21.40;33.40;;;;;;5033679;28;20433;-65
2022/05/31 11:45:51;;;;;;;2.90;2.03;;;21.40;33.30;;;;;;5033516;28;20461;-68
2022/05/31 11:48:33;;;;;;;2.97;1.90;;;21.50;33.50;;;;;;5031493;28;20916;-67
2022/05/31 11:51:13;;;;;;;2.50;1.53;;;21.40;33.10;;;;;;5032745;28;20465;-67
2022/05/31 11:54:04;;;;;;;3.40;1.40;;;21.40;33.30;;;;;;5032895;28;20440;-66
2022/05/31 11:56:39;;;;;;;2.27;1.60;;;21.40;33.10;;;;;;5032207;28;20518;-66
2022/05/31 11:59:13;;;;;;;2.00;1.67;;;21.30;33.20;;;;;;5032988;28;20845;-65
2022/05/31 12:01:48;;;;;;;3.10;1.70;;;21.40;32.70;;;;;;5031950;28;20452;-66
2022/05/31 12:04:22;;;;;;;1.90;1.60;;;21.50;32.40;;;;;;5039075;28;20436;-65
2022/05/31 12:06:54;;;;;;;2.07;1.60;;;21.60;31.70;;;;;;5040796;28;20496;-66
2022/05/31 12:09:30;;;;;;;2.30;1.67;;;21.90;31.70;;;;;;5040398;28;20441;-67
2022/05/31 12:12:03;;;;;;;2.67;2.00;;;22.30;31.20;;;;;;5040869;28;20465;-65
2022/05/31 12:14:32;;;;;;;2.70;1.80;;;22.60;30.90;;;;;;5037412;28;20429;-66
2022/05/31 12:17:01;;;;;;;3.77;1.50;;;22.70;30.70;;;;;;5032418;28;20565;-68
2022/05/31 12:19:36;;;;;;;2.70;1.73;;;22.80;30.70;;;;;;5033608;28;20530;-66
2022/05/31 12:22:09;;;;;;;2.70;1.77;;;23.10;30.20;;;;;;5033085;28;20429;-67
2022/05/31 12:24:42;;;;;;;3.23;1.70;;;23.40;29.80;;;;;;5032650;28;20443;-65
2022/05/31 12:27:14;;;;;;;3.73;1.70;;;23.40;29.60;;;;;;5032189;28;20445;-68
2022/05/31 12:29:46;;;;;;;3.67;1.57;;;23.20;29.50;;;;;;5033623;28;20441;-66
2022/05/31 12:32:41;;;;;;;3.17;1.53;;;22.80;29.40;;;;;;5036482;28;20500;-65
2022/05/31 12:35:10;;;;;;;3.07;1.50;;;22.60;29.60;;;;;;5034744;28;20503;-64
2022/05/31 12:37:54;;;;;;;2.83;1.80;;;22.40;29.80;;;;;;5036250;28;20928;-65
2022/05/31 12:40:28;;;;;;;2.23;1.33;;;22.30;29.80;;;;;;5035029;28;20476;-64
2022/05/31 12:42:55;;;;;;;3.13;1.73;;;22.20;29.70;;;;;;5037109;28;20777;-65
2022/05/31 12:45:29;;;;;;;2.33;1.73;;;22.10;29.80;;;;;;5034725;28;20507;-62
2022/05/31 12:48:00;;;;;;;2.23;1.50;;;21.90;29.80;;;;;;5036214;28;20456;-65
2022/05/31 12:51:04;;;;;;;3.23;1.97;;;21.70;29.80;;;;;;5036118;28;20473;-64
2022/05/31 12:54:06;;;;;;;2.10;1.77;;;21.50;30.00;;;;;;5034902;28;20449;-65
2022/05/31 12:56:53;;;;;;;3.93;2.17;;;21.60;30.00;;;;;;5036045;28;20978;-64
2022/05/31 12:59:44;;;;;;;2.67;1.43;;;21.70;29.90;;;;;;5035942;28;20441;-66
2022/05/31 13:02:29;;;;;;;4.90;2.00;;;21.90;29.80;;;;;;5035251;28;20784;-67
2022/05/31 13:05:06;;;;;;;1.77;1.60;;;22.00;29.80;;;;;;5036077;28;20429;-65
2022/05/31 13:07:45;;;;;;;1.83;1.67;;;22.30;29.60;;;;;;5035773;28;20914;-66
2022/05/31 13:19:34;;;;;;;2.40;2.10;;;22.40;29.40;;;;;;5038937;28;20486;-65
2022/05/31 13:21:57;;;;;;;2.33;1.80;;;22.60;29.70;;;;;;5055449;28;20891;-66
2022/05/31 13:24:26;;;;;;;2.63;1.97;;;22.60;29.70;;;;;;5044895;28;20464;-66
2022/05/31 13:26:54;;;;;;;2.83;1.57;;;22.60;29.80;;;;;;5034629;28;20829;-67
2022/05/31 13:29:21;;;;;;;2.07;1.50;;;22.60;29.90;;;;;;5032914;28;20461;-65
2022/05/31 13:31:54;;;;;;;2.63;1.50;;;22.40;30.00;;;;;;5034743;28;20484;-64
2022/05/31 13:34:30;;;;;;;6.10;1.90;;;22.30;30.20;;;;;;5034823;28;20453;-64
2022/05/31 13:37:01;;;;;;;4.10;2.20;;;22.20;30.00;;;;;;5035115;28;20948;-66
2022/05/31 13:39:29;;;;;;;3.10;2.37;;;22.20;30.20;;;;;;5033970;28;20456;-65
2022/05/31 13:41:59;;;;;;;4.37;2.07;;;22.30;30.00;;;;;;5035059;28;20568;-65
2022/05/31 13:44:30;;;;;;;1.80;1.40;;;22.40;29.60;;;;;;5035402;28;20445;-64
2022/05/31 13:47:01;;;;;;;3.17;1.87;;;22.30;29.40;;;;;;5035131;28;20605;-65
2022/05/31 13:49:34;;;;;;;2.40;1.87;;;22.40;29.40;;;;;;5035256;28;20438;-65
2022/05/31 13:52:06;;;;;;;4.13;1.60;;;22.60;29.40;;;;;;5034784;28;20472;-65
2022/05/31 13:54:42;;;;;;;3.03;1.77;;;22.70;29.30;;;;;;5035281;28;20433;-65
2022/05/31 13:57:13;;;;;;;3.17;1.90;;;22.70;29.10;;;;;;5035304;28;20425;-65
2022/05/31 13:59:46;;;;;;;2.93;2.60;;;22.70;29.10;;;;;;5034717;28;20452;-65
2022/05/31 14:02:17;;;;;;;2.90;1.67;;;22.80;29.30;;;;;;5034711;28;20436;-65
2022/05/31 14:04:45;;;;;;;2.90;2.00;;;22.70;29.30;;;;;;5034844;28;20437;-64